Time;durP1;ratioP1;P1;durP2;ratioP2;P2;SDS_P1;SDS_P2;PMS_P1;PMS_P2;Temp;Humidity;BMP_temperature;BMP_pressure;BME280_temperature;BME280_humidity;BME280_pressure;Samples;Min_cycle;Max_cycle;Signal;HPM_P1;HPM_P2
2022/10/28 00:02:24;;;;;;;7.87;3.53;;;;;;;;;;4983024;28;20185;-91
2022/10/28 00:05:33;;;;;;;7.57;3.50;;;;;;;;;;4982816;28;20209;-90
2022/10/28 00:08:38;;;;;;;10.13;4.17;;;;;;;;;;4982725;28;20186;-90
2022/10/28 00:11:42;;;;;;;8.80;3.87;;;;;;;;;;4982398;28;20213;-90
2022/10/28 00:14:46;;;;;;;8.73;3.63;;;;;;;;;;4982274;28;20181;-90
2022/10/28 00:17:51;;;;;;;10.03;4.00;;;;;;;;;;4981244;28;20186;-90
2022/10/28 00:21:00;;;;;;;11.23;4.17;;;;;;;;;;4982097;28;20177;-90
2022/10/28 00:24:07;;;;;;;7.60;3.80;;;;;;;;;;4982302;28;20181;-90
2022/10/28 00:27:11;;;;;;;8.33;4.13;;;;;;;;;;4981953;28;20174;-90
2022/10/28 00:30:15;;;;;;;6.67;3.97;;;;;;;;;;4981892;28;20671;-90
2022/10/28 00:33:19;;;;;;;8.33;3.83;;;;;;;;;;4982295;28;20225;-90
2022/10/28 00:36:26;;;;;;;8.50;3.80;;;;;;;;;;4982112;28;20692;-90
2022/10/28 00:39:30;;;;;;;6.60;3.60;;;;;;;;;;4981626;28;20193;-90
2022/10/28 00:42:34;;;;;;;9.37;3.73;;;;;;;;;;4981820;28;20181;-90
2022/10/28 00:45:39;;;;;;;10.03;3.90;;;;;;;;;;4981904;28;20209;-90
2022/10/28 00:48:46;;;;;;;6.13;4.23;;;;;;;;;;4981843;28;20182;-90
2022/10/28 00:51:55;;;;;;;10.73;3.73;;;;;;;;;;4981611;28;20209;-90
2022/10/28 00:55:01;;;;;;;8.30;3.70;;;;;;;;;;4981347;28;20221;-90
2022/10/28 00:58:08;;;;;;;9.43;4.00;;;;;;;;;;4986848;28;20190;-90
2022/10/28 01:01:12;;;;;;;5.20;3.10;;;;;;;;;;4981097;28;20186;-90
2022/10/28 01:04:17;;;;;;;5.33;3.40;;;;;;;;;;4981059;28;20189;-90
2022/10/28 01:07:21;;;;;;;7.57;3.53;;;;;;;;;;4981466;28;20178;-90
2022/10/28 01:10:58;;;;;;;10.37;3.93;;;;;;;;;;4980943;28;20193;-90
2022/10/28 01:14:18;;;;;;;6.00;3.40;;;;;;;;;;4981039;28;20514;-90
2022/10/28 01:17:28;;;;;;;8.57;3.87;;;;;;;;;;4981128;28;20182;-90
2022/10/28 01:20:48;;;;;;;10.27;3.43;;;;;;;;;;4981270;28;20182;-90
2022/10/28 01:24:11;;;;;;;7.30;3.37;;;;;;;;;;4980820;28;20173;-90
2022/10/28 01:27:34;;;;;;;5.20;3.47;;;;;;;;;;4981224;28;20190;-90
2022/10/28 01:31:17;;;;;;;5.63;3.00;;;;;;;;;;4980575;28;20182;-90
2022/10/28 01:34:34;;;;;;;8.33;3.50;;;;;;;;;;4980756;28;20186;-91
2022/10/28 01:37:59;;;;;;;6.80;4.30;;;;;;;;;;4980868;28;20538;-90
2022/10/28 01:41:27;;;;;;;9.13;3.50;;;;;;;;;;4980842;28;20182;-90
2022/10/28 01:44:47;;;;;;;7.80;3.73;;;;;;;;;;4980561;28;20185;-90
2022/10/28 01:48:18;;;;;;;6.77;3.63;;;;;;;;;;4980875;28;20182;-90
2022/10/28 01:51:37;;;;;;;7.67;3.70;;;;;;;;;;4980653;28;20185;-90
2022/10/28 01:54:46;;;;;;;10.90;3.80;;;;;;;;;;4980347;28;20182;-90
2022/10/28 01:57:53;;;;;;;7.53;3.27;;;;;;;;;;4980041;28;20197;-90
2022/10/28 02:00:59;;;;;;;10.63;3.67;;;;;;;;;;4980293;28;20174;-90
2022/10/28 02:04:03;;;;;;;8.23;3.57;;;;;;;;;;4991644;28;20177;-91
2022/10/28 02:07:08;;;;;;;6.50;3.30;;;;;;;;;;4981257;28;20182;-90
2022/10/28 02:10:19;;;;;;;9.83;3.77;;;;;;;;;;4981400;28;20181;-90
2022/10/28 02:13:42;;;;;;;5.20;3.57;;;;;;;;;;4980536;28;20553;-91
2022/10/28 02:16:57;;;;;;;4.97;3.80;;;;;;;;;;4980568;28;20217;-90
2022/10/28 02:20:37;;;;;;;11.00;3.70;;;;;;;;;;4991363;28;20198;-90
2022/10/28 02:24:02;;;;;;;8.27;3.40;;;;;;;;;;4980550;28;20182;-90
2022/10/28 02:27:16;;;;;;;7.43;3.37;;;;;;;;;;4991862;28;20613;-90
2022/10/28 02:30:41;;;;;;;5.97;3.97;;;;;;;;;;4991814;28;20182;-90
2022/10/28 02:33:52;;;;;;;5.43;3.43;;;;;;;;;;4980542;28;20673;-90
2022/10/28 02:36:58;;;;;;;4.23;3.37;;;;;;;;;;4980194;28;20221;-91
2022/10/28 02:40:06;;;;;;;8.37;4.67;;;;;;;;;;4980276;28;20197;-90
2022/10/28 02:43:13;;;;;;;7.33;3.90;;;;;;;;;;4983862;28;20174;-90
2022/10/28 02:46:19;;;;;;;4.60;3.30;;;;;;;;;;4983815;28;20687;-90
2022/10/28 02:49:25;;;;;;;4.23;3.43;;;;;;;;;;4983775;28;20181;-91
2022/10/28 02:52:32;;;;;;;11.33;3.90;;;;;;;;;;4983386;28;20229;-90
2022/10/28 02:55:41;;;;;;;6.97;3.83;;;;;;;;;;4983660;28;20217;-90
2022/10/28 02:58:47;;;;;;;10.03;3.70;;;;;;;;;;4983717;28;20178;-90
2022/10/28 03:01:51;;;;;;;5.23;3.67;;;;;;;;;;4994653;28;20621;-90
2022/10/28 03:04:55;;;;;;;9.47;3.77;;;;;;;;;;4983300;28;20221;-91
2022/10/28 03:07:59;;;;;;;5.67;3.23;;;;;;;;;;4982778;28;20205;-90
2022/10/28 03:11:03;;;;;;;7.43;3.80;;;;;;;;;;4983232;28;20534;-90
2022/10/28 03:14:07;;;;;;;6.90;3.53;;;;;;;;;;4982520;28;20221;-90
2022/10/28 03:17:11;;;;;;;5.73;3.23;;;;;;;;;;4982974;28;20185;-90
2022/10/28 03:20:16;;;;;;;9.03;3.13;;;;;;;;;;4983180;28;20186;-90
2022/10/28 03:23:20;;;;;;;10.07;3.50;;;;;;;;;;4982588;28;20170;-90
2022/10/28 03:26:24;;;;;;;6.67;3.40;;;;;;;;;;4982637;28;20220;-90
2022/10/28 03:29:28;;;;;;;8.33;3.53;;;;;;;;;;4983083;28;20185;-90
2022/10/28 03:32:32;;;;;;;7.53;3.40;;;;;;;;;;4982589;28;20217;-90
2022/10/28 03:35:37;;;;;;;8.27;3.17;;;;;;;;;;4982760;28;20213;-90
2022/10/28 03:38:41;;;;;;;4.87;3.20;;;;;;;;;;4982826;28;20628;-90
2022/10/28 03:42:16;;;;;;;5.63;3.33;;;;;;;;;;4983133;28;20181;-90
2022/10/28 03:45:20;;;;;;;5.53;2.97;;;;;;;;;;4982985;28;20217;-90
2022/10/28 03:48:24;;;;;;;7.23;3.53;;;;;;;;;;4982217;28;20177;-90
2022/10/28 03:51:29;;;;;;;7.20;3.87;;;;;;;;;;4982078;28;20186;-90
2022/10/28 03:54:33;;;;;;;7.67;3.23;;;;;;;;;;4982079;28;20178;-90
2022/10/28 03:57:37;;;;;;;7.80;3.27;;;;;;;;;;4981666;28;20209;-90
2022/10/28 04:00:41;;;;;;;6.00;3.00;;;;;;;;;;4983051;28;20186;-92
2022/10/28 04:03:45;;;;;;;8.70;3.07;;;;;;;;;;4993484;28;20177;-92
2022/10/28 04:06:50;;;;;;;9.93;3.43;;;;;;;;;;4992764;28;20217;-92
2022/10/28 04:09:54;;;;;;;3.87;2.90;;;;;;;;;;4982493;28;20197;-93
2022/10/28 04:13:02;;;;;;;5.93;3.17;;;;;;;;;;4982123;28;20214;-92
2022/10/28 04:16:06;;;;;;;6.83;2.87;;;;;;;;;;4981895;28;20209;-92
2022/10/28 04:19:10;;;;;;;6.73;3.20;;;;;;;;;;4992927;28;20185;-92
2022/10/28 04:22:15;;;;;;;5.20;3.33;;;;;;;;;;4981638;28;20189;-92
2022/10/28 04:25:20;;;;;;;10.97;4.03;;;;;;;;;;4981481;28;20213;-92
2022/10/28 04:28:24;;;;;;;9.17;4.37;;;;;;;;;;4981612;28;20194;-92
2022/10/28 04:31:28;;;;;;;6.00;3.07;;;;;;;;;;4982062;28;20174;-92
2022/10/28 04:34:32;;;;;;;6.13;2.90;;;;;;;;;;4992584;28;20564;-92
2022/10/28 04:37:37;;;;;;;4.97;3.07;;;;;;;;;;4992632;28;20173;-92
2022/10/28 04:40:41;;;;;;;5.70;2.87;;;;;;;;;;4992489;28;20637;-92
2022/10/28 04:43:45;;;;;;;10.47;3.30;;;;;;;;;;4981412;28;20170;-92
2022/10/28 04:46:49;;;;;;;5.53;2.80;;;;;;;;;;4980929;28;20224;-92
2022/10/28 04:49:53;;;;;;;5.57;2.83;;;;;;;;;;4981393;28;20185;-92
2022/10/28 04:52:57;;;;;;;10.97;3.23;;;;;;;;;;4992780;28;20205;-92
2022/10/28 04:56:02;;;;;;;3.53;2.80;;;;;;;;;;4972238;28;20226;-92
2022/10/28 04:59:06;;;;;;;9.83;2.97;;;;;;;;;;4973066;28;20185;-92
2022/10/28 05:02:09;;;;;;;8.10;3.10;;;;;;;;;;4972780;28;20202;-93
2022/10/28 05:05:14;;;;;;;7.20;3.23;;;;;;;;;;4971591;28;20218;-92
2022/10/28 05:08:18;;;;;;;8.13;3.13;;;;;;;;;;4961172;28;20636;-92
2022/10/28 05:11:22;;;;;;;5.63;3.00;;;;;;;;;;4961711;28;20182;-91
2022/10/28 05:14:26;;;;;;;5.23;3.43;;;;;;;;;;4962531;28;20210;-91
2022/10/28 05:17:31;;;;;;;9.00;3.37;;;;;;;;;;4984131;28;20672;-91
2022/10/28 05:20:35;;;;;;;5.63;2.93;;;;;;;;;;4991315;28;20205;-91
2022/10/28 05:23:40;;;;;;;7.67;3.77;;;;;;;;;;4991951;28;20505;-92
2022/10/28 05:26:44;;;;;;;7.70;3.90;;;;;;;;;;4991103;28;20217;-91
2022/10/28 05:29:48;;;;;;;4.87;2.83;;;;;;;;;;4980066;28;20181;-92
2022/10/28 05:33:02;;;;;;;7.93;2.87;;;;;;;;;;4991774;28;20201;-92
2022/10/28 05:36:07;;;;;;;5.13;2.87;;;;;;;;;;4991281;28;20225;-92
2022/10/28 05:39:12;;;;;;;5.40;3.00;;;;;;;;;;4980652;28;20675;-92
2022/10/28 05:42:16;;;;;;;14.27;3.37;;;;;;;;;;4979916;28;20556;-92
2022/10/28 05:45:20;;;;;;;6.10;2.67;;;;;;;;;;5002880;28;20557;-91
2022/10/28 05:48:25;;;;;;;6.67;2.90;;;;;;;;;;4991754;28;20181;-91
2022/10/28 05:51:30;;;;;;;4.50;2.50;;;;;;;;;;4992275;28;20663;-92
2022/10/28 05:54:34;;;;;;;7.10;2.70;;;;;;;;;;4980772;28;20217;-92
2022/10/28 05:57:38;;;;;;;7.60;2.90;;;;;;;;;;4981511;28;20209;-91
2022/10/28 06:00:42;;;;;;;12.43;2.70;;;;;;;;;;4991844;28;20189;-91
2022/10/28 06:03:47;;;;;;;8.20;2.60;;;;;;;;;;4980923;28;20174;-91
2022/10/28 06:06:55;;;;;;;4.97;2.40;;;;;;;;;;4980325;28;20217;-91
2022/10/28 06:09:59;;;;;;;9.00;3.27;;;;;;;;;;4980612;28;20186;-91
2022/10/28 06:13:04;;;;;;;5.87;2.70;;;;;;;;;;4980235;28;20205;-91
2022/10/28 06:16:08;;;;;;;8.13;2.90;;;;;;;;;;4983716;28;20217;-91
2022/10/28 06:19:23;;;;;;;8.33;3.97;;;;;;;;;;4984592;28;20518;-90
2022/10/28 06:22:27;;;;;;;7.90;4.20;;;;;;;;;;4984461;28;20189;-91
2022/10/28 06:25:31;;;;;;;4.63;3.50;;;;;;;;;;4985160;28;20213;-92
2022/10/28 06:28:36;;;;;;;9.77;3.50;;;;;;;;;;4985114;28;20186;-92
2022/10/28 06:31:41;;;;;;;10.70;3.80;;;;;;;;;;4984922;28;20660;-92
2022/10/28 06:34:45;;;;;;;11.40;3.20;;;;;;;;;;4984545;28;20559;-91
2022/10/28 06:37:55;;;;;;;10.87;3.90;;;;;;;;;;4983148;28;20201;-91
2022/10/28 06:40:59;;;;;;;9.07;3.03;;;;;;;;;;4984004;28;20653;-92
2022/10/28 06:44:03;;;;;;;10.57;3.23;;;;;;;;;;4984004;28;20173;-91
2022/10/28 06:47:07;;;;;;;8.73;3.00;;;;;;;;;;4984432;28;20173;-91
2022/10/28 06:50:12;;;;;;;6.10;3.40;;;;;;;;;;4995266;28;20181;-91
2022/10/28 06:53:16;;;;;;;7.93;3.53;;;;;;;;;;4994466;28;20213;-91
2022/10/28 06:56:20;;;;;;;4.80;3.33;;;;;;;;;;4983358;28;20229;-91
2022/10/28 06:59:24;;;;;;;4.37;2.83;;;;;;;;;;4984754;28;20177;-90
2022/10/28 07:02:29;;;;;;;7.80;2.70;;;;;;;;;;4965968;28;20194;-91
2022/10/28 07:05:33;;;;;;;5.23;3.23;;;;;;;;;;4984488;28;20687;-92
2022/10/28 07:08:37;;;;;;;4.40;2.83;;;;;;;;;;4986856;28;20186;-92
2022/10/28 07:11:44;;;;;;;6.57;3.57;;;;;;;;;;4965661;28;20182;-91
2022/10/28 07:14:48;;;;;;;7.07;3.97;;;;;;;;;;4980961;28;20210;-91
2022/10/28 07:17:53;;;;;;;7.97;3.63;;;;;;;;;;4971851;28;20202;-92
2022/10/28 07:20:59;;;;;;;6.80;3.43;;;;;;;;;;4973674;28;20186;-93
2022/10/28 07:24:03;;;;;;;11.30;4.37;;;;;;;;;;4971834;28;20625;-91
2022/10/28 07:27:08;;;;;;;10.10;4.77;;;;;;;;;;4970307;28;20178;-92
2022/10/28 07:30:12;;;;;;;9.27;4.50;;;;;;;;;;4977343;28;20218;-92
2022/10/28 07:33:16;;;;;;;6.63;4.73;;;;;;;;;;4989708;28;20190;-92
2022/10/28 07:36:20;;;;;;;9.67;4.00;;;;;;;;;;4978686;28;20222;-92
2022/10/28 07:39:26;;;;;;;11.73;4.10;;;;;;;;;;4966648;28;20206;-92
2022/10/28 07:42:32;;;;;;;9.83;3.30;;;;;;;;;;4994211;28;20205;-91
2022/10/28 07:45:37;;;;;;;8.43;4.10;;;;;;;;;;4981583;28;20225;-91
2022/10/28 07:48:41;;;;;;;9.90;4.40;;;;;;;;;;4984691;28;20181;-92
2022/10/28 07:51:46;;;;;;;12.37;4.33;;;;;;;;;;4984569;28;20178;-92
2022/10/28 07:54:51;;;;;;;6.17;2.90;;;;;;;;;;4982890;28;20202;-92
2022/10/28 07:57:54;;;;;;;6.03;2.20;;;;;;;;;;4983204;28;20698;-92
2022/10/28 08:01:04;;;;;;;6.23;2.10;;;;;;;;;;4982178;28;20181;-91
2022/10/28 08:04:08;;;;;;;4.90;2.20;;;;;;;;;;4993247;28;20190;-92
2022/10/28 08:07:13;;;;;;;8.67;2.47;;;;;;;;;;4982624;28;20193;-92
2022/10/28 08:10:17;;;;;;;6.80;3.10;;;;;;;;;;4981127;28;20185;-92
2022/10/28 08:13:21;;;;;;;7.13;3.43;;;;;;;;;;4981711;28;20178;-92
2022/10/28 08:16:27;;;;;;;7.33;2.97;;;;;;;;;;4981700;28;20217;-92
2022/10/28 08:19:32;;;;;;;6.50;2.93;;;;;;;;;;4982594;28;20181;-92
2022/10/28 08:22:36;;;;;;;9.07;3.73;;;;;;;;;;4992924;28;20524;-92
2022/10/28 08:25:51;;;;;;;6.40;3.10;;;;;;;;;;4981651;28;20213;-93
2022/10/28 08:28:55;;;;;;;6.80;4.10;;;;;;;;;;4993127;28;20178;-91
2022/10/28 08:31:59;;;;;;;8.53;3.80;;;;;;;;;;4982116;28;20182;-92
2022/10/28 08:35:04;;;;;;;8.97;3.80;;;;;;;;;;4981919;28;20687;-92
2022/10/28 08:38:08;;;;;;;7.53;3.70;;;;;;;;;;4992403;28;20177;-92
2022/10/28 08:41:44;;;;;;;6.87;3.70;;;;;;;;;;4981677;28;20182;-92
2022/10/28 08:45:14;;;;;;;9.83;3.10;;;;;;;;;;4924445;28;20197;-92
2022/10/28 08:48:32;;;;;;;8.20;3.07;;;;;;;;;;4992990;28;20181;-92
2022/10/28 08:52:01;;;;;;;6.63;3.00;;;;;;;;;;4972783;28;20534;-92
2022/10/28 08:55:17;;;;;;;9.23;3.40;;;;;;;;;;4961708;28;20234;-92
2022/10/28 08:58:27;;;;;;;7.33;3.27;;;;;;;;;;4973202;28;20175;-92
2022/10/28 09:01:57;;;;;;;4.33;2.50;;;;;;;;;;4961908;28;20182;-92
2022/10/28 09:05:15;;;;;;;3.97;2.10;;;;;;;;;;4961695;28;20214;-92
2022/10/28 09:08:24;;;;;;;5.10;1.80;;;;;;;;;;4983831;28;20194;-92
2022/10/28 09:11:49;;;;;;;2.40;1.57;;;;;;;;;;4982485;28;20198;-92
2022/10/28 09:15:08;;;;;;;3.90;1.50;;;;;;;;;;4972521;28;20210;-91
2022/10/28 09:18:19;;;;;;;5.67;1.83;;;;;;;;;;4972555;28;20186;-92
2022/10/28 09:21:37;;;;;;;5.17;1.53;;;;;;;;;;4983868;28;20194;-92
2022/10/28 09:24:51;;;;;;;7.37;1.73;;;;;;;;;;4972109;28;20178;-92
2022/10/28 09:28:17;;;;;;;4.03;1.43;;;;;;;;;;4983936;28;20187;-92
2022/10/28 09:31:34;;;;;;;7.17;1.90;;;;;;;;;;4972522;28;20187;-92
2022/10/28 09:34:45;;;;;;;5.33;1.63;;;;;;;;;;4983460;28;20214;-92
2022/10/28 09:37:55;;;;;;;3.97;1.53;;;;;;;;;;4983271;28;20182;-92
2022/10/28 09:41:10;;;;;;;4.97;1.50;;;;;;;;;;4972387;28;20178;-92
2022/10/28 09:44:29;;;;;;;2.63;1.40;;;;;;;;;;4972576;28;20614;-92
2022/10/28 09:47:39;;;;;;;5.80;1.40;;;;;;;;;;4972085;28;20186;-92
2022/10/28 09:50:43;;;;;;;6.23;1.57;;;;;;;;;;4972449;28;20190;-92
2022/10/28 09:53:55;;;;;;;7.00;1.87;;;;;;;;;;4972208;28;20174;-92
2022/10/28 09:57:01;;;;;;;3.23;1.30;;;;;;;;;;4972259;28;20229;-92
2022/10/28 10:00:06;;;;;;;7.50;1.60;;;;;;;;;;4972354;28;20178;-92
2022/10/28 10:03:15;;;;;;;3.87;1.27;;;;;;;;;;4972742;28;20224;-92
2022/10/28 10:06:34;;;;;;;2.57;1.40;;;;;;;;;;4972111;28;20688;-92
2022/10/28 10:09:38;;;;;;;4.37;1.70;;;;;;;;;;4972445;28;20186;-92
2022/10/28 10:12:42;;;;;;;5.30;1.80;;;;;;;;;;4972293;28;20182;-93
2022/10/28 10:15:55;;;;;;;5.33;1.80;;;;;;;;;;4971982;28;20222;-92
2022/10/28 10:19:02;;;;;;;6.80;2.03;;;;;;;;;;4972907;28;20200;-93
2022/10/28 10:22:06;;;;;;;7.23;1.70;;;;;;;;;;4961557;28;20184;-92
2022/10/28 10:25:16;;;;;;;5.90;1.60;;;;;;;;;;4972441;28;20217;-93
2022/10/28 10:28:21;;;;;;;3.60;1.63;;;;;;;;;;4974906;28;20213;-91
2022/10/28 10:31:28;;;;;;;4.47;1.80;;;;;;;;;;5003175;28;20201;-87
2022/10/28 10:34:32;;;;;;;3.37;1.90;;;;;;;;;;4973177;28;20217;-87
2022/10/28 10:37:42;;;;;;;4.73;1.57;;;;;;;;;;4975970;28;20652;-86
2022/10/28 10:40:49;;;;;;;2.83;1.90;;;;;;;;;;4971264;28;20193;-87
2022/10/28 10:43:53;;;;;;;8.17;1.67;;;;;;;;;;4971500;28;20183;-86
2022/10/28 10:47:03;;;;;;;6.27;2.20;;;;;;;;;;4975924;28;20686;-86
2022/10/28 10:50:29;;;;;;;4.33;1.63;;;;;;;;;;4979704;28;20178;-87
2022/10/28 10:53:34;;;;;;;4.97;1.63;;;;;;;;;;5000215;28;20192;-88
2022/10/28 10:56:39;;;;;;;4.73;2.13;;;;;;;;;;4979982;28;20698;-86
2022/10/28 10:59:49;;;;;;;5.67;1.77;;;;;;;;;;4973129;28;20206;-87
2022/10/28 11:02:53;;;;;;;5.30;1.40;;;;;;;;;;4973863;28;20650;-87
2022/10/28 11:05:59;;;;;;;4.93;2.03;;;;;;;;;;4963671;28;20252;-87
2022/10/28 11:09:06;;;;;;;3.40;2.37;;;;;;;;;;4986176;28;20213;-85
2022/10/28 11:12:27;;;;;;;5.13;1.63;;;;;;;;;;4974670;28;20210;-85
2022/10/28 11:15:31;;;;;;;1.77;1.30;;;;;;;;;;4982579;28;20240;-85
2022/10/28 11:18:41;;;;;;;4.90;1.60;;;;;;;;;;4994588;28;20189;-88
2022/10/28 11:21:52;;;;;;;3.33;1.80;;;;;;;;;;4993697;28;20201;-85
2022/10/28 11:25:15;;;;;;;9.27;1.70;;;;;;;;;;4995193;28;20212;-85
2022/10/28 11:28:41;;;;;;;4.83;1.40;;;;;;;;;;4970284;28;20193;-83
2022/10/28 11:31:54;;;;;;;4.00;1.30;;;;;;;;;;4981899;28;20195;-85
2022/10/28 11:35:01;;;;;;;6.30;2.07;;;;;;;;;;4965131;28;20706;-88
2022/10/28 12:23:00;;;;;;;5.03;1.50;;;;;;;;;;4956973;28;20207;-87
2022/10/28 12:26:09;;;;;;;5.37;1.30;;;;;;;;;;4984793;28;20229;-86
2022/10/28 12:29:20;;;;;;;3.53;1.23;;;;;;;;;;5002262;28;20178;-87
2022/10/28 12:32:28;;;;;;;4.27;1.30;;;;;;;;;;5000533;28;20182;-86
2022/10/28 12:35:37;;;;;;;6.20;1.90;;;;;;;;;;4985571;28;20227;-92
2022/10/28 12:38:45;;;;;;;5.10;1.50;;;;;;;;;;4981605;28;20184;-85
2022/10/28 12:42:00;;;;;;;3.27;1.33;;;;;;;;;;4991769;28;20191;-85
2022/10/28 12:45:11;;;;;;;6.23;1.47;;;;;;;;;;4981157;28;20214;-85
2022/10/28 12:48:23;;;;;;;6.63;1.90;;;;;;;;;;4981104;28;20658;-85
2022/10/28 12:51:39;;;;;;;3.60;1.37;;;;;;;;;;4991958;28;20198;-85
2022/10/28 12:55:17;;;;;;;10.40;1.60;;;;;;;;;;4981449;28;20179;-84
2022/10/28 12:58:54;;;;;;;5.07;1.47;;;;;;;;;;4992054;28;20186;-84
2022/10/28 13:02:01;;;;;;;5.03;1.73;;;;;;;;;;4981948;28;20187;-84
2022/10/28 13:05:09;;;;;;;4.23;1.73;;;;;;;;;;4992276;28;20219;-86
2022/10/28 13:08:37;;;;;;;11.60;1.77;;;;;;;;;;4992892;28;20187;-86
2022/10/28 13:11:53;;;;;;;4.30;1.73;;;;;;;;;;4991684;28;20183;-86
2022/10/28 13:15:14;;;;;;;4.13;1.60;;;;;;;;;;4980231;28;20222;-85
2022/10/28 13:18:42;;;;;;;5.57;1.87;;;;;;;;;;5003250;28;20609;-85
2022/10/28 13:22:18;;;;;;;3.57;1.50;;;;;;;;;;4991281;28;20182;-85
2022/10/28 13:25:28;;;;;;;7.47;1.73;;;;;;;;;;4991240;28;20218;-85
2022/10/28 13:28:35;;;;;;;3.23;1.53;;;;;;;;;;4980671;28;20178;-85
2022/10/28 13:31:43;;;;;;;6.00;1.87;;;;;;;;;;4991687;28;20177;-85
2022/10/28 13:34:47;;;;;;;5.47;1.87;;;;;;;;;;5003146;28;20644;-84
2022/10/28 13:37:53;;;;;;;3.83;2.10;;;;;;;;;;4992228;28;20177;-85
2022/10/28 13:40:57;;;;;;;6.23;1.80;;;;;;;;;;4991957;28;20621;-84
2022/10/28 13:44:08;;;;;;;4.20;1.70;;;;;;;;;;4992134;28;20197;-85
2022/10/28 13:47:12;;;;;;;6.73;1.40;;;;;;;;;;4962045;28;20183;-84
2022/10/28 13:50:32;;;;;;;3.27;1.50;;;;;;;;;;4972484;28;20178;-85
2022/10/28 13:53:54;;;;;;;2.87;1.40;;;;;;;;;;4983409;28;20192;-84
2022/10/28 13:57:11;;;;;;;3.87;1.67;;;;;;;;;;5001498;23;20572;-84
2022/10/28 14:00:24;;;;;;;3.63;1.83;;;;;;;;;;5002345;28;20558;-85
2022/10/28 14:03:29;;;;;;;5.20;2.00;;;;;;;;;;4991342;28;20187;-86
2022/10/28 14:06:34;;;;;;;9.33;1.70;;;;;;;;;;4990867;28;20217;-85
2022/10/28 14:09:40;;;;;;;7.77;1.70;;;;;;;;;;4970639;28;20195;-85
2022/10/28 14:12:50;;;;;;;4.57;1.23;;;;;;;;;;4971528;28;20182;-84
2022/10/28 14:16:36;;;;;;;6.87;1.93;;;;;;;;;;4981842;28;20674;-84
2022/10/28 14:19:48;;;;;;;3.30;1.70;;;;;;;;;;4929837;28;20190;-84
2022/10/28 14:22:53;;;;;;;2.97;1.67;;;;;;;;;;4973290;28;20186;-83
2022/10/28 14:26:00;;;;;;;4.10;1.73;;;;;;;;;;4961950;28;20511;-83
2022/10/28 14:29:26;;;;;;;5.40;1.93;;;;;;;;;;4978462;28;20206;-83
2022/10/28 14:32:30;;;;;;;6.57;1.57;;;;;;;;;;4992671;28;20194;-83
2022/10/28 14:35:41;;;;;;;5.47;1.53;;;;;;;;;;4980034;28;20210;-84
2022/10/28 14:38:50;;;;;;;5.63;1.90;;;;;;;;;;5005235;28;20541;-84
2022/10/28 14:42:03;;;;;;;3.47;1.53;;;;;;;;;;4992596;28;20189;-84
2022/10/28 14:45:29;;;;;;;4.33;1.63;;;;;;;;;;4982126;28;20182;-84
2022/10/28 14:48:36;;;;;;;4.33;1.80;;;;;;;;;;4990730;28;20234;-84
2022/10/28 14:51:42;;;;;;;4.63;1.80;;;;;;;;;;4982089;28;20195;-84
2022/10/28 14:54:50;;;;;;;5.97;1.60;;;;;;;;;;5004624;28;20190;-83
2022/10/28 14:58:12;;;;;;;5.33;1.87;;;;;;;;;;4982466;28;20213;-84
2022/10/28 15:01:16;;;;;;;4.00;1.57;;;;;;;;;;4993517;28;20195;-83
2022/10/28 15:04:21;;;;;;;4.63;1.60;;;;;;;;;;4982469;28;20177;-83
2022/10/28 15:07:25;;;;;;;7.10;1.90;;;;;;;;;;4982740;28;20218;-84
2022/10/28 15:10:34;;;;;;;2.37;1.60;;;;;;;;;;4994370;28;20178;-84
2022/10/28 15:13:38;;;;;;;7.37;1.97;;;;;;;;;;4994126;28;20185;-84
2022/10/28 15:16:48;;;;;;;3.67;1.63;;;;;;;;;;4993483;28;20224;-85
2022/10/28 15:19:59;;;;;;;5.60;1.50;;;;;;;;;;4982518;28;20190;-85
2022/10/28 15:23:19;;;;;;;6.03;1.80;;;;;;;;;;5004329;28;20185;-85
2022/10/28 15:26:23;;;;;;;6.33;1.87;;;;;;;;;;4994309;28;20620;-84
2022/10/28 15:29:27;;;;;;;5.40;1.50;;;;;;;;;;4993020;28;20185;-85
2022/10/28 15:32:34;;;;;;;6.70;1.60;;;;;;;;;;4982681;28;20189;-85
2022/10/28 15:35:38;;;;;;;7.93;2.20;;;;;;;;;;4982382;28;20182;-85
2022/10/28 15:38:50;;;;;;;2.73;1.60;;;;;;;;;;4974456;28;20554;-85
2022/10/28 15:42:14;;;;;;;13.10;3.43;;;;;;;;;;4982386;28;20545;-85
2022/10/28 15:45:30;;;;;;;8.10;2.50;;;;;;;;;;4962458;28;20194;-85
2022/10/28 15:48:34;;;;;;;10.97;2.20;;;;;;;;;;4987305;28;20213;-84
2022/10/28 15:51:39;;;;;;;5.87;1.83;;;;;;;;;;4977348;28;20185;-85
2022/10/28 15:55:20;;;;;;;6.23;2.43;;;;;;;;;;4989015;28;20189;-85
2022/10/28 15:58:27;;;;;;;7.00;2.20;;;;;;;;;;4993757;28;20226;-83
2022/10/28 16:01:37;;;;;;;9.23;2.10;;;;;;;;;;4982098;28;20181;-83
2022/10/28 16:04:43;;;;;;;11.00;4.33;;;;;;;;;;4993906;28;20252;-83
2022/10/28 16:07:46;;;;;;;17.80;5.80;;;;;;;;;;4982863;28;20221;-84
2022/10/28 16:10:56;;;;;;;10.90;6.93;;;;;;;;;;4994166;28;20181;-84
2022/10/28 16:14:37;;;;;;;10.97;6.03;;;;;;;;;;4983329;28;20535;-84
2022/10/28 16:17:42;;;;;;;6.57;3.83;;;;;;;;;;4973023;28;20236;-84
2022/10/28 16:20:49;;;;;;;8.47;3.70;;;;;;;;;;4993192;28;20209;-84
2022/10/28 16:23:57;;;;;;;6.70;2.50;;;;;;;;;;4992665;28;20197;-83
2022/10/28 16:27:15;;;;;;;3.97;2.03;;;;;;;;;;4991931;28;20217;-83
2022/10/28 16:30:19;;;;;;;7.47;2.67;;;;;;;;;;5002901;28;20182;-83
2022/10/28 16:33:34;;;;;;;5.27;2.37;;;;;;;;;;5002644;28;20202;-84
2022/10/28 16:36:38;;;;;;;6.60;2.20;;;;;;;;;;4980428;28;20221;-84
2022/10/28 16:39:42;;;;;;;7.97;2.37;;;;;;;;;;5002825;28;20189;-84
2022/10/28 16:42:46;;;;;;;8.90;2.70;;;;;;;;;;4992019;28;20193;-83
2022/10/28 16:45:52;;;;;;;5.67;2.43;;;;;;;;;;5002409;28;20542;-83
2022/10/28 16:48:56;;;;;;;10.77;2.37;;;;;;;;;;4976514;28;20194;-84
2022/10/28 16:52:01;;;;;;;5.67;2.20;;;;;;;;;;4971693;28;20186;-83
2022/10/28 16:55:14;;;;;;;5.13;2.53;;;;;;;;;;4971921;28;20202;-83
2022/10/28 16:58:19;;;;;;;4.47;1.80;;;;;;;;;;4961258;28;20233;-83
2022/10/28 17:01:23;;;;;;;4.97;2.03;;;;;;;;;;4983200;28;20186;-83
2022/10/28 17:04:28;;;;;;;9.20;3.47;;;;;;;;;;4983036;28;20178;-82
2022/10/28 17:07:32;;;;;;;18.43;6.43;;;;;;;;;;4971617;28;20214;-83
2022/10/28 17:10:39;;;;;;;13.23;6.53;;;;;;;;;;4972132;28;20655;-82
2022/10/28 17:13:43;;;;;;;15.03;6.00;;;;;;;;;;4960785;28;20598;-82
2022/10/28 17:16:47;;;;;;;11.23;3.30;;;;;;;;;;4971750;28;20225;-83
2022/10/28 17:19:51;;;;;;;10.67;3.83;;;;;;;;;;4971853;28;20205;-82
2022/10/28 17:22:57;;;;;;;8.40;3.43;;;;;;;;;;4971800;28;20495;-83
2022/10/28 17:26:01;;;;;;;12.73;3.30;;;;;;;;;;4971332;28;20587;-82
2022/10/28 17:29:06;;;;;;;9.27;3.63;;;;;;;;;;4971440;28;20542;-82
2022/10/28 17:32:10;;;;;;;9.00;3.70;;;;;;;;;;4960551;28;20538;-82
2022/10/28 17:35:14;;;;;;;13.27;3.40;;;;;;;;;;4960535;28;20178;-82
2022/10/28 17:38:18;;;;;;;9.93;2.90;;;;;;;;;;4971433;28;20233;-83
2022/10/28 17:41:22;;;;;;;6.67;3.27;;;;;;;;;;4960615;28;20182;-83
2022/10/28 17:44:26;;;;;;;14.13;3.33;;;;;;;;;;4971480;28;20521;-82
2022/10/28 17:47:33;;;;;;;9.17;3.00;;;;;;;;;;4960051;28;20214;-83
2022/10/28 17:50:37;;;;;;;6.87;3.00;;;;;;;;;;4971508;28;20174;-82
2022/10/28 17:53:41;;;;;;;11.60;3.00;;;;;;;;;;4971237;28;20206;-83
2022/10/28 17:56:46;;;;;;;7.17;3.50;;;;;;;;;;4971125;28;20229;-83
2022/10/28 17:59:50;;;;;;;8.27;3.40;;;;;;;;;;4971515;28;20182;-83
2022/10/28 18:02:55;;;;;;;5.77;2.33;;;;;;;;;;4960520;28;20625;-83
2022/10/28 18:06:03;;;;;;;7.30;3.07;;;;;;;;;;4971392;28;20186;-83
2022/10/28 18:09:11;;;;;;;11.63;3.27;;;;;;;;;;4971945;28;20174;-83
2022/10/28 18:12:15;;;;;;;10.67;3.07;;;;;;;;;;4994019;28;20194;-84
2022/10/28 18:15:19;;;;;;;4.07;2.60;;;;;;;;;;4996052;28;20181;-83
2022/10/28 18:18:25;;;;;;;11.03;3.07;;;;;;;;;;4996165;28;20225;-84
2022/10/28 18:21:30;;;;;;;7.20;3.37;;;;;;;;;;4984456;28;20177;-85
2022/10/28 18:24:35;;;;;;;10.07;3.77;;;;;;;;;;4996743;28;20194;-82
2022/10/28 18:27:40;;;;;;;10.17;3.70;;;;;;;;;;4996539;28;20209;-82
2022/10/28 18:30:44;;;;;;;7.13;3.30;;;;;;;;;;4983662;28;20182;-81
2022/10/28 18:33:48;;;;;;;9.83;3.67;;;;;;;;;;5006187;28;20620;-81
2022/10/28 18:36:53;;;;;;;9.50;3.53;;;;;;;;;;4994890;28;20225;-81
2022/10/28 18:39:57;;;;;;;6.03;3.80;;;;;;;;;;4993953;28;20529;-82
2022/10/28 18:43:01;;;;;;;9.00;3.70;;;;;;;;;;4994110;28;20193;-84
2022/10/28 18:46:06;;;;;;;14.13;4.13;;;;;;;;;;4994543;28;20178;-85
2022/10/28 18:49:10;;;;;;;8.83;3.53;;;;;;;;;;4993850;28;20181;-84
2022/10/28 18:52:14;;;;;;;5.57;3.20;;;;;;;;;;4985912;28;20210;-84
2022/10/28 18:55:18;;;;;;;6.87;3.33;;;;;;;;;;4982217;28;20205;-84
2022/10/28 18:58:24;;;;;;;13.40;2.90;;;;;;;;;;4973899;28;20233;-84
2022/10/28 19:01:30;;;;;;;6.63;3.20;;;;;;;;;;4973886;28;20198;-84
2022/10/28 19:04:34;;;;;;;7.17;3.10;;;;;;;;;;4974317;28;20519;-84
2022/10/28 19:07:39;;;;;;;4.00;2.73;;;;;;;;;;4974537;28;20210;-85
2022/10/28 19:10:43;;;;;;;6.47;2.77;;;;;;;;;;4986003;28;20201;-84
2022/10/28 19:13:48;;;;;;;6.27;2.97;;;;;;;;;;4993296;28;20182;-84
2022/10/28 19:16:52;;;;;;;7.53;3.07;;;;;;;;;;4993156;28;20229;-84
2022/10/28 19:19:56;;;;;;;5.10;2.43;;;;;;;;;;4993495;28;20182;-85
2022/10/28 19:23:00;;;;;;;7.10;3.07;;;;;;;;;;4981381;28;20181;-84
2022/10/28 19:26:05;;;;;;;6.57;2.83;;;;;;;;;;4993469;28;20177;-84
2022/10/28 19:29:10;;;;;;;6.00;2.83;;;;;;;;;;4976343;28;20190;-84
2022/10/28 19:32:14;;;;;;;5.77;2.63;;;;;;;;;;4993642;28;20530;-87
2022/10/28 19:35:18;;;;;;;7.53;2.67;;;;;;;;;;4982318;28;20177;-84